Time;durP1;ratioP1;P1;durP2;ratioP2;P2;SDS_P1;SDS_P2;PMS_P1;PMS_P2;Temp;Humidity;BMP_temperature;BMP_pressure;BME280_temperature;BME280_humidity;BME280_pressure;Samples;Min_cycle;Max_cycle;Signal;HPM_P1;HPM_P2
2022/04/21 00:00:33;;;;;;;;;10.25;7.00;;;;;16.61;31.85;100526.25;5158887;27;45049;-63
2022/04/21 00:02:58;;;;;;;;;8.50;7.00;;;;;16.58;31.94;100524.47;5178155;27;45105;-64
2022/04/21 00:05:24;;;;;;;;;9.00;7.25;;;;;16.54;32.06;100521.78;5177393;27;45268;-65
2022/04/21 00:07:49;;;;;;;;;9.00;8.00;;;;;16.38;31.95;100502.94;5178084;27;45073;-64
2022/04/21 00:10:16;;;;;;;;;9.50;9.25;;;;;16.44;32.21;100515.50;5178151;27;45024;-63
2022/04/21 00:12:42;;;;;;;;;9.50;9.00;;;;;16.33;31.78;100493.97;5177831;27;45168;-64
2022/04/21 00:15:08;;;;;;;;;6.00;3.00;;;;;15.97;31.62;100439.19;5175325;27;45857;-65
2022/04/21 00:17:34;;;;;;;;;9.75;8.50;;;;;16.24;31.88;100482.28;5177276;27;45078;-64
2022/04/21 00:19:59;;;;;;;;;8.00;8.00;;;;;16.32;32.34;100508.34;5176447;27;45427;-64
2022/04/21 00:25:09;;;;;;;;;10.00;8.75;;;;;16.29;32.15;100493.97;5177089;27;45017;-65
2022/04/21 00:27:43;;;;;;;;;9.00;7.50;;;;;16.25;31.97;100493.06;5154921;27;45264;-64
2022/04/21 00:30:09;;;;;;;;;7.00;7.00;;;;;16.27;32.08;100491.25;5176773;27;44982;-64
2022/04/21 00:32:36;;;;;;;;;8.00;7.75;;;;;16.25;32.18;100494.84;5176775;27;45544;-64
2022/04/21 00:35:07;;;;;;;;;12.50;8.00;;;;;16.21;32.35;100494.84;5176525;27;45599;-63
2022/04/21 00:37:33;;;;;;;;;6.25;6.25;;;;;16.12;32.40;100481.41;5174696;27;45014;-64
2022/04/21 00:39:59;;;;;;;;;7.25;7.25;;;;;16.20;32.24;100493.06;5174635;27;45049;-64
2022/04/21 00:42:25;;;;;;;;;7.75;7.75;;;;;16.18;32.40;100488.56;5174505;27;45246;-64
2022/04/21 00:44:50;;;;;;;;;9.50;9.50;;;;;16.17;32.51;100494.88;5173355;27;45541;-65
2022/04/21 00:47:18;;;;;;;;;6.00;6.00;;;;;16.13;32.67;100487.69;5175121;27;45118;-63
2022/04/21 00:49:45;;;;;;;;;11.00;8.75;;;;;16.03;32.50;100479.59;5177508;27;45088;-63
2022/04/21 00:52:11;;;;;;;;;8.50;8.50;;;;;16.08;32.51;100482.28;5177528;27;45188;-63
2022/04/21 00:54:37;;;;;;;;;11.00;10.75;;;;;15.98;32.86;100467.91;5176134;27;45199;-64
2022/04/21 00:57:04;;;;;;;;;9.50;9.50;;;;;16.08;32.96;100482.28;5174687;27;45126;-63
2022/04/21 00:59:30;;;;;;;;;11.50;10.50;;;;;16.01;32.99;100472.41;5177137;27;45044;-64
2022/04/21 01:04:40;;;;;;;;;11.50;11.50;;;;;15.93;33.38;100460.75;5176422;27;45112;-64
2022/04/21 01:07:08;;;;;;;;;14.75;13.00;;;;;15.97;33.60;100466.13;5175899;27;45125;-64
2022/04/21 01:09:38;;;;;;;;;13.00;10.50;;;;;15.93;33.78;100460.75;5176278;27;45192;-65
2022/04/21 01:12:10;;;;;;;;;17.75;13.50;;;;;15.93;33.48;100461.63;5176308;27;45154;-64
2022/04/21 01:14:40;;;;;;;;;17.25;12.75;;;;;15.78;33.68;100443.66;5169377;27;45181;-64
2022/04/21 01:17:06;;;;;;;;;18.50;13.00;;;;;15.91;33.46;100460.75;5157873;27;44982;-65
2022/04/21 01:19:31;;;;;;;;;16.50;14.50;;;;;15.93;33.57;100463.44;5176431;27;45059;-64
2022/04/21 01:21:57;;;;;;;;;13.25;12.75;;;;;15.72;33.65;100434.66;5176733;27;44923;-65
2022/04/21 01:24:22;;;;;;;;;10.00;10.00;;;;;15.87;33.79;100458.94;5176319;27;45694;-64
2022/04/21 01:26:48;;;;;;;;;12.25;11.75;;;;;15.83;33.63;100457.16;5177191;27;45083;-64
2022/04/21 01:29:14;;;;;;;;;11.25;10.50;;;;;15.80;33.54;100451.75;5176885;27;45209;-65
2022/04/21 01:31:39;;;;;;;;;9.50;7.25;;;;;15.77;33.57;100458.06;5176284;27;45187;-64
2022/04/21 01:34:05;;;;;;;;;9.75;9.75;;;;;15.63;33.50;100435.56;5176029;27;45834;-64
2022/04/21 01:36:30;;;;;;;;;8.00;8.00;;;;;15.56;33.65;100426.59;5176376;27;45058;-64
2022/04/21 01:41:39;;;;;;;;;8.75;8.75;;;;;15.67;34.37;100456.19;5176405;27;45270;-64
2022/04/21 01:44:05;;;;;;;;;12.00;11.00;;;;;15.62;33.71;100458.00;5175774;27;50051;-63
2022/04/21 01:46:30;;;;;;;;;8.50;7.50;;;;;15.58;33.94;100451.72;5176166;27;44945;-63
2022/04/21 01:48:55;;;;;;;;;12.50;11.50;;;;;15.57;33.94;100451.72;5176264;27;45011;-64
2022/04/21 01:51:21;;;;;;;;;8.00;6.25;;;;;15.54;33.85;100436.47;5176041;27;45080;-63
2022/04/21 01:53:46;;;;;;;;;9.25;7.50;;;;;15.56;33.77;100441.81;5174216;27;45924;-65
2022/04/21 01:56:12;;;;;;;;;9.50;8.75;;;;;15.53;33.59;100437.34;5175576;27;44981;-62
2022/04/21 01:58:37;;;;;;;;;9.00;9.00;;;;;15.54;33.33;100438.25;5172642;27;45007;-63
2022/04/21 02:01:03;;;;;;;;;10.25;8.50;;;;;15.51;33.76;100440.91;5175669;27;45045;-64
2022/04/21 02:03:30;;;;;;;;;7.75;7.75;;;;;15.43;33.96;100431.06;5174754;27;46349;-64
2022/04/21 02:05:56;;;;;;;;;13.75;9.25;;;;;15.45;33.89;100437.31;5172730;27;44949;-64
2022/04/21 02:08:21;;;;;;;;;9.75;9.75;;;;;15.42;33.80;100436.44;5174875;27;45221;-64
2022/04/21 02:10:46;;;;;;;;;12.00;10.25;;;;;15.36;33.86;100431.94;5174416;27;45125;-64
2022/04/21 02:13:12;;;;;;;;;1.00;1.00;;;;;15.28;34.00;100420.28;5173440;27;45541;-64
2022/04/21 02:15:38;;;;;;;;;8.75;8.00;;;;;15.32;34.26;100430.13;5174734;27;45012;-63
2022/04/21 02:18:03;;;;;;;;;8.75;8.25;;;;;15.28;33.67;100431.94;5175512;27;45034;-64
2022/04/21 02:20:29;;;;;;;;;9.75;9.75;;;;;15.11;33.57;100398.69;5175136;27;45249;-64
2022/04/21 02:22:54;;;;;;;;;10.50;9.75;;;;;14.80;33.84;100349.28;5174595;27;45509;-64
2022/04/21 02:25:19;;;;;;;;;11.50;10.00;;;;;15.23;33.60;100417.56;5175635;27;45395;-65
2022/04/21 02:27:47;;;;;;;;;9.00;8.50;;;;;15.19;33.61;100410.38;5173692;27;45078;-63
2022/04/21 02:30:14;;;;;;;;;6.00;5.75;;;;;15.19;33.54;100414.84;5174651;27;45257;-64
2022/04/21 02:32:40;;;;;;;;;7.75;7.75;;;;;15.19;33.58;100404.97;5174370;27;45711;-63
2022/04/21 02:35:09;;;;;;;;;11.25;9.25;;;;;15.19;33.42;100406.78;5175244;27;44959;-63
2022/04/21 02:37:36;;;;;;;;;8.00;7.75;;;;;15.16;33.68;100404.09;5175601;27;44989;-64
2022/04/21 02:40:02;;;;;;;;;8.00;8.00;;;;;15.06;33.41;100392.41;5175363;27;45025;-62
2022/04/21 02:42:27;;;;;;;;;13.50;10.00;;;;;15.03;33.44;100387.94;5155932;27;46157;-63
2022/04/21 02:44:52;;;;;;;;;8.50;8.50;;;;;15.12;33.66;100403.19;5175939;27;45300;-63
2022/04/21 02:47:18;;;;;;;;;10.75;7.75;;;;;15.13;33.32;100409.47;5175772;27;45097;-63
2022/04/21 02:49:46;;;;;;;;;9.25;9.25;;;;;15.06;33.52;100392.41;5175709;27;45149;-64
2022/04/21 02:52:12;;;;;;;;;11.50;10.00;;;;;15.09;33.52;100404.06;5173795;27;45430;-62
2022/04/21 02:57:23;;;;;;;;;8.50;8.50;;;;;15.05;33.42;100399.59;5167011;27;45022;-62
2022/04/21 02:59:48;;;;;;;;;11.00;10.00;;;;;15.05;33.81;100398.69;5174490;27;45057;-63
2022/04/21 03:02:13;;;;;;;;;7.25;7.25;;;;;14.71;33.72;100339.41;5173281;27;45112;-63
2022/04/21 03:04:39;;;;;;;;;7.75;7.75;;;;;14.92;33.99;100387.88;5173939;27;44960;-63
2022/04/21 03:07:04;;;;;;;;;11.25;7.75;;;;;14.93;33.59;100394.16;5173746;27;45270;-64
2022/04/21 03:09:32;;;;;;;;;8.00;8.00;;;;;14.92;33.75;100401.34;5175788;27;45194;-64
2022/04/21 03:12:04;;;;;;;;;10.00;10.00;;;;;14.92;33.62;100392.38;5174469;27;46154;-64
2022/04/21 03:14:29;;;;;;;;;11.25;8.50;;;;;14.91;34.09;100394.19;5174669;27;45120;-64
2022/04/21 03:16:55;;;;;;;;;11.25;11.25;;;;;14.88;33.91;100396.84;5175017;27;45296;-64
2022/04/21 03:19:20;;;;;;;;;12.00;9.25;;;;;14.87;33.71;100380.72;5175203;27;44988;-64
2022/04/21 03:24:30;;;;;;;;;8.75;8.25;;;;;14.77;33.83;100379.78;5175495;27;45214;-64
2022/04/21 03:26:56;;;;;;;;;10.50;9.75;;;;;14.64;34.28;100351.06;5175435;27;45315;-64
2022/04/21 03:29:21;;;;;;;;;9.75;8.50;;;;;14.74;33.79;100375.28;5175315;27;45036;-64
2022/04/21 03:31:48;;;;;;;;;13.50;11.50;;;;;14.73;34.05;100375.28;5174816;27;46567;-64
2022/04/21 03:34:15;;;;;;;;;11.00;8.00;;;;;14.69;33.78;100371.69;5175086;27;44978;-63
2022/04/21 03:36:51;;;;;;;;;10.25;9.75;;;;;14.67;34.46;100373.47;5173410;27;45106;-63
2022/04/21 03:39:20;;;;;;;;;12.50;9.25;;;;;14.52;34.46;100358.16;5176562;27;45054;-64
2022/04/21 03:41:46;;;;;;;;;11.00;11.00;;;;;14.57;34.27;100364.44;5177851;27;45367;-64
2022/04/21 03:44:11;;;;;;;;;8.25;8.00;;;;;14.59;34.56;100369.84;5163729;27;44969;-63
2022/04/21 03:46:40;;;;;;;;;16.50;9.25;;;;;14.54;34.57;100368.91;5157484;27;45037;-62
2022/04/21 03:49:06;;;;;;;;;11.50;10.50;;;;;14.49;34.39;100362.63;5157550;27;44979;-64
2022/04/21 03:51:32;;;;;;;;;8.25;7.00;;;;;14.52;34.45;100363.53;5159393;27;45623;-64
2022/04/21 03:53:58;;;;;;;;;10.75;10.75;;;;;14.50;34.22;100367.09;5166148;27;44982;-63
2022/04/21 03:56:23;;;;;;;;;13.25;7.50;;;;;14.32;34.23;100354.47;5157217;27;45032;-62
2022/04/21 03:58:49;;;;;;;;;12.25;9.75;;;;;14.48;34.02;100382.31;5157428;27;45057;-65
2022/04/21 04:01:15;;;;;;;;;12.00;10.00;;;;;14.47;34.61;100375.13;5164263;27;46464;-64
2022/04/21 04:03:40;;;;;;;;;11.50;11.50;;;;;14.41;34.66;100370.66;5177783;27;45385;-63
2022/04/21 04:10:51;;;;;;;;;10.50;10.25;;;;;14.41;34.69;100376.03;5178411;27;45279;-63
2022/04/21 04:11:35;;;;;;;;;16.00;10.00;;;;;14.35;34.90;100376.91;5176663;27;45056;-63
2022/04/21 04:14:00;;;;;;;;;13.00;9.00;;;;;14.32;34.47;100378.66;5177143;27;44962;-64
2022/04/21 04:16:26;;;;;;;;;11.75;11.00;;;;;14.18;34.61;100363.34;5177627;27;44974;-64
2022/04/21 04:18:51;;;;;;;;;12.00;10.75;;;;;14.29;34.21;100384.91;5159779;27;45042;-64
2022/04/21 04:21:16;;;;;;;;;11.00;8.00;;;;;14.12;34.71;100355.28;5170319;27;54993;-64
2022/04/21 04:23:41;;;;;;;;;8.50;8.50;;;;;14.30;34.17;100386.69;5158898;27;52716;-64
2022/04/21 04:26:07;;;;;;;;;15.50;11.50;;;;;14.30;33.80;100383.13;5177078;27;45168;-64
2022/04/21 04:28:32;;;;;;;;;10.25;10.25;;;;;13.97;34.39;100326.56;5176272;27;45116;-64
2022/04/21 04:30:57;;;;;;;;;11.75;10.75;;;;;14.30;33.93;100381.31;5176963;27;45670;-63
2022/04/21 04:33:23;;;;;;;;;12.00;11.00;;;;;14.28;33.95;100374.16;5176234;27;47608;-62
2022/04/21 04:35:48;;;;;;;;;11.00;10.50;;;;;14.27;33.92;100383.09;5176806;27;44968;-63
2022/04/21 04:38:14;;;;;;;;;14.50;13.25;;;;;14.24;33.68;100386.69;5177486;27;45528;-64
2022/04/21 04:40:39;;;;;;;;;20.00;17.50;;;;;14.23;33.90;100394.75;5177945;27;45057;-63
2022/04/21 04:43:05;;;;;;;;;13.75;13.75;;;;;14.21;34.15;100396.53;5177793;27;44986;-64
2022/04/21 04:48:14;;;;;;;;;12.50;9.50;;;;;14.16;34.09;100401.88;5177706;27;44996;-65
2022/04/21 04:50:40;;;;;;;;;12.75;12.00;;;;;14.12;33.96;100409.00;5175374;27;45047;-62
2022/04/21 04:53:05;;;;;;;;;13.75;12.50;;;;;14.10;34.09;100409.88;5176796;27;45068;-62
2022/04/21 04:55:30;;;;;;;;;13.50;12.00;;;;;14.08;34.28;100409.88;5177008;27;44959;-63
2022/04/21 04:57:56;;;;;;;;;11.25;9.50;;;;;13.69;34.36;100344.25;5177056;27;44958;-65
2022/04/21 05:00:21;;;;;;;;;15.50;12.00;;;;;14.01;34.41;100390.13;5174089;27;45103;-65
2022/04/21 05:02:47;;;;;;;;;11.25;11.25;;;;;13.90;34.06;100399.91;5175045;27;45135;-64
2022/04/21 05:05:12;;;;;;;;;11.00;11.00;;;;;13.81;34.53;100359.56;5173919;27;45088;-62
2022/04/21 05:07:39;;;;;;;;;13.00;11.50;;;;;14.10;34.25;100404.50;5176102;27;45429;-64
2022/04/21 05:10:08;;;;;;;;;11.50;11.50;;;;;14.13;34.76;100408.09;5175030;27;45633;-65
2022/04/21 05:12:33;;;;;;;;;14.75;13.75;;;;;13.89;34.19;100371.25;5155720;27;45168;-65
2022/04/21 05:14:59;;;;;;;;;13.50;12.50;;;;;14.12;34.86;100406.34;5163793;27;45102;-64
2022/04/21 05:17:25;;;;;;;;;11.75;10.25;;;;;14.09;34.78;100411.69;5156133;27;45057;-65
2022/04/21 05:19:52;;;;;;;;;14.75;13.25;;;;;14.13;34.79;100416.16;5152443;27;45054;-64
2022/04/21 05:22:18;;;;;;;;;12.00;12.00;;;;;13.99;34.73;100382.94;5154012;27;45537;-65
2022/04/21 05:24:48;;;;;;;;;13.00;10.50;;;;;14.05;34.89;100396.41;5154216;27;45400;-65
2022/04/21 05:27:14;;;;;;;;;14.75;11.75;;;;;14.08;34.60;100404.50;5153365;27;45005;-64
2022/04/21 05:32:28;;;;;;;;;18.75;14.00;;;;;14.23;35.01;100413.56;5153066;27;44938;-63
2022/04/21 05:34:54;;;;;;;;;15.00;12.50;;;;;14.24;34.92;100415.31;5149510;27;45368;-63
2022/04/21 05:37:19;;;;;;;;;14.25;14.25;;;;;13.81;34.88;100340.78;5157673;27;44921;-65
2022/04/21 05:39:45;;;;;;;;;12.75;11.50;;;;;14.23;34.86;100411.75;5156191;27;47288;-65
2022/04/21 05:42:23;;;;;;;;;16.50;14.00;;;;;14.21;34.86;100418.03;5173270;27;45037;-64
2022/04/21 05:44:52;;;;;;;;;11.75;10.25;;;;;14.17;34.96;100406.34;5172833;27;45105;-65
2022/04/21 05:47:19;;;;;;;;;12.50;12.25;;;;;14.15;35.18;100400.94;5173999;27;46279;-65
2022/04/21 05:49:44;;;;;;;;;15.50;13.50;;;;;14.17;34.95;100398.28;5165519;27;45762;-62
2022/04/21 05:52:12;;;;;;;;;12.00;10.00;;;;;14.10;35.49;100381.22;5155410;27;44959;-65
2022/04/21 05:54:38;;;;;;;;;13.75;10.75;;;;;14.06;35.44;100371.38;5174723;27;45224;-63
2022/04/21 05:57:04;;;;;;;;;10.50;10.00;;;;;14.24;34.77;100405.50;5173541;27;45025;-65
2022/04/21 05:59:29;;;;;;;;;14.75;11.75;;;;;14.24;34.80;100402.81;5173698;27;44990;-65
2022/04/21 06:01:55;;;;;;;;;13.25;12.75;;;;;14.22;35.28;100395.63;5154914;27;45202;-65
2022/04/21 06:04:22;;;;;;;;;19.50;17.25;;;;;14.27;35.18;100391.16;5174423;27;45101;-64
2022/04/21 06:06:48;;;;;;;;;14.00;13.00;;;;;14.19;35.02;100393.84;5173824;27;45488;-65
2022/04/21 06:09:13;;;;;;;;;16.00;15.25;;;;;14.20;35.49;100390.22;5173921;27;45518;-66
2022/04/21 06:11:38;;;;;;;;;14.50;13.25;;;;;14.20;35.33;100392.91;5163425;27;45361;-64
2022/04/21 06:14:04;;;;;;;;;28.50;24.50;;;;;14.05;35.83;100368.66;5164996;27;45126;-65
2022/04/21 06:16:29;;;;;;;;;12.75;12.75;;;;;14.06;35.14;100362.41;5158762;27;45430;-66
2022/04/21 06:18:54;;;;;;;;;13.25;10.25;;;;;14.17;35.31;100392.91;5156233;27;46112;-65
2022/04/21 06:21:20;;;;;;;;;17.00;15.50;;;;;14.20;35.78;100392.91;5156866;27;45699;-66
2022/04/21 06:23:45;;;;;;;;;13.75;12.00;;;;;14.24;35.47;100385.78;5157089;27;45584;-65
2022/04/21 06:26:11;;;;;;;;;15.00;13.75;;;;;14.22;36.09;100399.19;5156767;27;45441;-64
2022/04/21 06:28:36;;;;;;;;;14.25;11.75;;;;;14.21;35.72;100391.16;5159488;27;45370;-64
2022/04/21 06:31:02;;;;;;;;;14.00;11.00;;;;;14.22;35.63;100384.88;5157064;27;45441;-64
2022/04/21 06:33:31;;;;;;;;;12.50;11.00;;;;;14.19;36.45;100396.53;5157247;27;45371;-65
2022/04/21 06:35:58;;;;;;;;;14.50;11.25;;;;;14.24;36.50;100405.50;5157000;27;45293;-64
2022/04/21 06:38:24;;;;;;;;;13.75;13.75;;;;;14.31;35.98;100387.63;5156957;27;45535;-63
2022/04/21 06:40:49;;;;;;;;;16.75;14.25;;;;;14.34;35.87;100390.31;5156555;27;45459;-63
2022/04/21 06:48:45;;;;;;;;;13.50;13.50;;;;;14.39;35.67;100383.19;5155305;27;45472;-65
2022/04/21 06:51:11;;;;;;;;;14.00;12.25;;;;;14.43;36.07;100384.97;5156302;27;45214;-65
2022/04/21 06:53:37;;;;;;;;;13.50;13.50;;;;;14.43;35.40;100381.41;5156639;27;45478;-63
2022/04/21 06:56:03;;;;;;;;;11.50;11.00;;;;;14.51;36.17;100382.34;5156529;27;45483;-66
2022/04/21 06:58:29;;;;;;;;;16.75;13.75;;;;;14.49;35.24;100363.50;5156051;27;46233;-65
2022/04/21 07:00:54;;;;;;;;;14.00;12.75;;;;;14.62;35.54;100380.63;5155124;27;50982;-65
2022/04/21 07:03:19;;;;;;;;;16.75;13.00;;;;;14.65;35.83;100377.03;5137481;27;45342;-65
2022/04/21 07:05:45;;;;;;;;;17.25;15.50;;;;;14.68;35.51;100374.34;5156446;27;46254;-65
2022/04/21 07:08:11;;;;;;;;;15.75;13.75;;;;;14.68;35.60;100375.28;5156146;27;46033;-65
2022/04/21 07:10:36;;;;;;;;;13.00;13.00;;;;;14.74;35.45;100382.47;5156742;27;45442;-66
2022/04/21 07:13:11;;;;;;;;;16.25;11.25;;;;;14.76;35.21;100383.34;5155966;27;45433;-65
2022/04/21 07:15:40;;;;;;;;;12.50;11.50;;;;;14.76;35.30;100371.72;5159598;27;45448;-65
2022/04/21 07:18:05;;;;;;;;;12.25;11.00;;;;;14.85;34.87;100379.78;5159939;27;45941;-65
2022/04/21 07:20:31;;;;;;;;;14.75;13.00;;;;;14.88;35.21;100379.81;5159622;27;45355;-65
2022/04/21 07:22:56;;;;;;;;;18.50;11.50;;;;;14.92;35.46;100373.56;5159795;27;45401;-65
2022/04/21 07:25:21;;;;;;;;;19.00;16.75;;;;;14.95;35.14;100375.34;5159873;27;45343;-65
2022/04/21 07:27:47;;;;;;;;;18.50;17.00;;;;;14.91;35.42;100353.84;5159504;27;45489;-65
2022/04/21 07:30:13;;;;;;;;;25.25;22.00;;;;;15.07;35.38;100365.50;5159273;27;45366;-65
2022/04/21 07:32:39;;;;;;;;;15.00;13.00;;;;;15.11;35.16;100367.31;5159871;27;45414;-65
2022/04/21 07:35:05;;;;;;;;;13.00;11.25;;;;;15.19;35.04;100358.34;5160216;27;45341;-66
2022/04/21 07:37:32;;;;;;;;;16.75;14.00;;;;;15.24;34.76;100360.13;5159579;27;46622;-66
2022/04/21 07:39:57;;;;;;;;;15.00;14.50;;;;;15.19;34.93;100350.28;5159289;27;45367;-66
2022/04/21 07:42:23;;;;;;;;;16.00;14.25;;;;;15.25;34.83;100352.97;5159049;27;45507;-65
2022/04/21 07:44:48;;;;;;;;;15.75;14.25;;;;;15.38;35.13;100351.19;5159791;27;45444;-65
2022/04/21 07:47:14;;;;;;;;;16.00;14.50;;;;;15.45;34.86;100343.09;5159015;27;45965;-65
2022/04/21 07:49:45;;;;;;;;;16.50;14.25;;;;;15.46;34.72;100350.28;5159391;27;45386;-65
2022/04/21 07:55:07;;;;;;;;;18.75;18.25;;;;;15.62;34.58;100351.19;5159705;27;45363;-65
2022/04/21 07:57:32;;;;;;;;;15.75;14.25;;;;;15.74;34.66;100350.28;5158707;27;46137;-65
2022/04/21 07:59:57;;;;;;;;;17.25;13.75;;;;;15.86;34.31;100348.50;5158911;27;45410;-65
2022/04/21 08:02:23;;;;;;;;;24.50;22.25;;;;;15.95;34.54;100349.34;5159454;27;45565;-65
2022/04/21 08:04:49;;;;;;;;;17.00;14.75;;;;;15.87;33.71;100315.25;5141410;27;45356;-65
2022/04/21 08:07:14;;;;;;;;;16.75;16.75;;;;;16.11;33.53;100341.25;5159396;27;45633;-65
2022/04/21 08:09:40;;;;;;;;;15.00;13.25;;;;;16.19;33.42;100344.81;5159095;27;46093;-65
2022/04/21 08:12:07;;;;;;;;;22.25;20.75;;;;;16.28;33.68;100344.78;5159434;27;45705;-65
2022/04/21 08:14:33;;;;;;;;;14.50;14.50;;;;;16.31;33.26;100350.16;5159371;27;45504;-65
2022/04/21 08:16:58;;;;;;;;;20.00;15.75;;;;;16.35;33.99;100359.13;5158898;27;45438;-66
2022/04/21 08:19:23;;;;;;;;;11.00;10.50;;;;;16.39;33.30;100351.03;5159046;27;45431;-66
2022/04/21 08:21:49;;;;;;;;;17.50;16.50;;;;;16.52;33.03;100361.78;5158847;27;45393;-65
2022/04/21 08:32:33;;;;;;;;;17.00;13.50;;;;;16.67;32.77;100323.06;5158914;27;45297;-65
2022/04/21 08:35:00;;;;;;;;;14.25;14.25;;;;;16.93;32.72;100355.31;5158901;27;45490;-65
2022/04/21 08:37:25;;;;;;;;;15.75;14.75;;;;;16.86;33.24;100342.75;5158407;27;46082;-65
2022/04/21 08:39:50;;;;;;;;;17.75;17.00;;;;;17.03;32.82;100359.75;5158864;27;45982;-66
2022/04/21 08:42:18;;;;;;;;;20.00;17.50;;;;;17.09;32.92;100364.19;5159083;27;45407;-65
2022/04/21 08:44:44;;;;;;;;;18.00;16.00;;;;;17.13;32.56;100357.88;5158596;27;45501;-66
2022/04/21 08:47:14;;;;;;;;;18.00;14.50;;;;;17.17;32.63;100354.22;5158172;27;46272;-65
2022/04/21 08:49:42;;;;;;;;;15.25;14.00;;;;;17.35;32.61;100355.03;5157971;27;45410;-64
2022/04/21 08:52:11;;;;;;;;;14.00;11.50;;;;;17.53;32.87;100351.28;5158290;27;45434;-65
2022/04/21 08:54:36;;;;;;;;;18.00;16.00;;;;;17.67;32.71;100343.94;5157993;27;45302;-64
2022/04/21 08:57:02;;;;;;;;;14.25;12.25;;;;;17.78;31.74;100349.25;5157060;27;46181;-62
2022/04/21 08:59:27;;;;;;;;;16.75;16.75;;;;;17.89;32.39;100355.47;5157745;27;45234;-65
2022/04/21 09:01:53;;;;;;;;;10.75;10.75;;;;;17.93;31.92;100346.41;5157947;27;45395;-65
2022/04/21 09:04:18;;;;;;;;;11.50;11.50;;;;;17.98;32.16;100349.97;5158546;27;45428;-65
2022/04/21 09:06:43;;;;;;;;;18.50;14.00;;;;;18.06;31.50;100341.78;5157940;27;45443;-67
2022/04/21 09:09:22;;;;;;;;;17.25;14.50;;;;;18.08;31.80;100331.81;5157957;27;45404;-65
2022/04/21 09:11:53;;;;;;;;;21.25;19.75;;;;;18.23;31.81;100345.19;5157997;27;45395;-63
2022/04/21 09:14:20;;;;;;;;;16.50;10.75;;;;;18.34;31.97;100344.16;5158072;27;45454;-63
2022/04/21 09:16:46;;;;;;;;;32.00;30.25;;;;;18.39;32.20;100340.47;5157682;27;46927;-66
2022/04/21 09:19:13;;;;;;;;;15.25;13.25;;;;;18.35;31.24;100329.75;5158068;27;45520;-66
2022/04/21 09:21:40;;;;;;;;;14.50;10.75;;;;;18.29;31.22;100335.22;5157897;27;45367;-66
2022/04/21 09:24:26;;;;;;;;;19.50;13.25;;;;;18.24;31.17;100332.56;5157903;27;45432;-66
2022/04/21 09:26:53;;;;;;;;;14.00;10.00;;;;;18.28;31.36;100338.81;5157370;27;47174;-67
2022/04/21 09:29:24;;;;;;;;;14.50;13.50;;;;;18.21;31.63;100311.88;5157828;27;45394;-65
2022/04/21 09:31:54;;;;;;;;;10.25;9.25;;;;;18.35;30.60;100310.81;5158210;27;45456;-65
2022/04/21 09:34:20;;;;;;;;;17.75;16.25;;;;;18.56;31.27;100321.34;5158020;27;45766;-64
2022/04/21 09:36:49;;;;;;;;;15.50;11.25;;;;;18.53;30.38;100323.19;5156410;27;45443;-65
2022/04/21 09:39:15;;;;;;;;;17.25;16.25;;;;;18.62;30.52;100323.06;5157181;27;45473;-66
2022/04/21 09:41:43;;;;;;;;;16.25;13.50;;;;;18.71;30.01;100319.31;5157478;27;45502;-64
2022/04/21 09:46:56;;;;;;;;;14.50;14.50;;;;;18.87;30.28;100314.63;5157127;27;45888;-65
2022/04/21 09:49:38;;;;;;;;;14.50;13.25;;;;;18.87;29.78;100307.41;5157057;27;45376;-65
2022/04/21 09:52:04;;;;;;;;;15.25;14.75;;;;;18.90;29.69;100296.53;5157224;27;45475;-65
2022/04/21 09:54:30;;;;;;;;;15.25;11.75;;;;;18.93;29.74;100299.19;5157499;27;45288;-65
2022/04/21 09:56:56;;;;;;;;;15.25;11.50;;;;;19.08;30.00;100308.88;5157161;27;45809;-65
2022/04/21 09:59:22;;;;;;;;;13.75;11.75;;;;;19.13;29.43;100287.16;5157375;27;45488;-66
2022/04/21 10:01:50;;;;;;;;;14.50;14.25;;;;;19.30;29.46;100303.13;5157232;27;45362;-66
2022/04/21 10:04:18;;;;;;;;;19.50;17.75;;;;;19.33;29.74;100300.38;5157326;27;45527;-66
2022/04/21 10:06:45;;;;;;;;;14.75;11.50;;;;;19.39;29.32;100294.84;5156803;27;47086;-64
2022/04/21 10:09:11;;;;;;;;;12.50;12.00;;;;;19.49;28.97;100293.75;5157033;27;45394;-66
2022/04/21 10:11:38;;;;;;;;;13.75;12.00;;;;;19.53;29.14;100294.59;5156944;27;45433;-66
2022/04/21 10:14:05;;;;;;;;;17.00;16.75;;;;;19.43;28.83;100260.47;5157100;27;45446;-65
2022/04/21 10:16:31;;;;;;;;;11.50;11.50;;;;;19.69;28.53;100282.56;5137349;27;48609;-65
2022/04/21 10:18:58;;;;;;;;;12.50;11.50;;;;;19.69;28.45;100266.28;5156934;27;45522;-65
2022/04/21 10:21:31;;;;;;;;;12.25;12.25;;;;;19.82;28.02;100276.94;5157228;27;45599;-66
2022/04/21 10:23:58;;;;;;;;;12.50;12.50;;;;;19.82;28.11;100274.25;5156923;27;45239;-65
2022/04/21 10:26:38;;;;;;;;;14.75;13.25;;;;;19.88;28.15;100274.09;5156655;27;46517;-65
2022/04/21 10:29:17;;;;;;;;;17.75;13.75;;;;;19.92;27.74;100256.88;5156538;27;45364;-65
2022/04/21 10:32:00;;;;;;;;;17.50;13.50;;;;;19.88;27.68;100260.53;5156557;27;45385;-65
2022/04/21 10:34:27;;;;;;;;;15.25;11.75;;;;;19.87;27.46;100261.47;5156771;27;45390;-66
2022/04/21 10:37:16;;;;;;;;;17.00;14.00;;;;;19.83;26.61;100254.31;5156274;27;45437;-66
2022/04/21 10:40:10;;;;;;;;;13.75;12.50;;;;;19.83;26.82;100251.59;5156456;27;45396;-65
2022/04/21 10:42:57;;;;;;;;;14.00;11.50;;;;;19.95;26.19;100254.09;5156187;27;45378;-66
2022/04/21 10:45:25;;;;;;;;;14.75;11.00;;;;;19.89;25.85;100229.81;5138133;27;45528;-65
2022/04/21 10:48:08;;;;;;;;;17.50;14.50;;;;;19.98;25.78;100254.03;5155864;27;45503;-65
2022/04/21 10:50:35;;;;;;;;;12.00;12.00;;;;;20.02;25.75;100247.59;5155920;27;45465;-65
2022/04/21 10:58:51;;;;;;;;;16.00;14.00;;;;;19.97;26.10;100245.94;5156396;27;45511;-65
2022/04/21 11:01:28;;;;;;;;;15.75;15.25;;;;;19.97;26.83;100233.25;5156143;27;45545;-65
2022/04/21 11:04:08;;;;;;;;;13.67;12.33;;;;;20.11;25.74;100240.22;5156426;27;45426;-65
2022/04/21 11:06:44;;;;;;;;;14.75;14.50;;;;;19.65;26.03;100164.31;5156188;27;45469;-64
2022/04/21 11:09:33;;;;;;;;;13.25;12.75;;;;;20.01;26.07;100237.72;5155844;27;46116;-65
2022/04/21 11:11:58;;;;;;;;;14.50;13.00;;;;;20.10;26.15;100236.59;5155522;27;45454;-66
2022/04/21 11:14:29;;;;;;;;;18.25;14.50;;;;;20.08;25.80;100216.78;5155704;27;45302;-66
2022/04/21 11:16:55;;;;;;;;;16.75;11.75;;;;;20.17;25.56;100230.13;5156196;27;45378;-64
2022/04/21 11:19:30;;;;;;;;;14.25;13.50;;;;;20.25;25.44;100221.81;5155466;27;45483;-66
2022/04/21 11:22:00;;;;;;;;;14.00;10.50;;;;;20.28;25.31;100213.63;5155358;27;45449;-66
2022/04/21 11:24:26;;;;;;;;;9.00;6.25;;;;;20.27;24.87;100209.13;5155994;27;45529;-66
2022/04/21 11:26:56;;;;;;;;;15.50;12.75;;;;;20.31;24.81;100207.22;5156174;27;45394;-66
2022/04/21 11:29:22;;;;;;;;;7.25;6.50;;;;;20.34;25.17;100208.06;5155676;27;45703;-65
2022/04/21 11:31:48;;;;;;;;;11.25;10.25;;;;;20.37;24.59;100205.25;5155424;27;45442;-65
2022/04/21 11:34:25;;;;;;;;;12.50;10.25;;;;;20.47;25.13;100210.50;5155755;27;45558;-65
2022/04/21 11:36:56;;;;;;;;;13.75;11.50;;;;;20.48;25.07;100207.75;5155815;27;45651;-66
2022/04/21 11:39:22;;;;;;;;;15.00;13.25;;;;;20.48;25.10;100212.28;5136752;27;48137;-66
2022/04/21 11:41:49;;;;;;;;;9.50;9.50;;;;;20.48;24.50;100199.59;5155899;27;45464;-66
2022/04/21 11:44:25;;;;;;;;;17.50;14.50;;;;;20.30;25.15;100170.19;5156638;27;45264;-67
2022/04/21 11:46:50;;;;;;;;;10.50;10.50;;;;;20.51;25.43;100204.03;5156326;27;45784;-65
2022/04/21 11:49:16;;;;;;;;;15.00;12.75;;;;;20.52;25.60;100203.13;5155346;27;46043;-64
2022/04/21 11:51:42;;;;;;;;;11.25;11.25;;;;;20.54;25.72;100209.41;5155437;27;45623;-65
2022/04/21 11:54:09;;;;;;;;;18.00;17.00;;;;;20.55;25.79;100208.50;5155919;27;45484;-64
2022/04/21 11:56:36;;;;;;;;;13.50;12.50;;;;;20.56;25.76;100191.28;5155409;27;45451;-64
2022/04/21 11:59:06;;;;;;;;;16.50;15.50;;;;;20.54;25.70;100185.91;5156381;27;46366;-67